createdAt,value
2018-12-29T00:00:14.881Z,39.07
2018-12-29T00:02:43.834Z,38.40
2018-12-29T00:05:12.687Z,39.17
2018-12-29T00:07:41.708Z,37.57
2018-12-29T00:10:10.478Z,36.53
2018-12-29T00:12:39.358Z,37.07
2018-12-29T00:15:11.242Z,37.63
2018-12-29T00:17:40.162Z,37.07
2018-12-29T00:20:09.114Z,36.40
2018-12-29T00:22:38.055Z,35.40
2018-12-29T00:25:06.953Z,35.30
2018-12-29T00:27:35.865Z,38.23
2018-12-29T00:30:05.489Z,38.90
2018-12-29T00:32:34.448Z,35.80
2018-12-29T00:35:03.200Z,38.33
2018-12-29T00:37:32.131Z,37.80
2018-12-29T00:40:00.950Z,39.53
2018-12-29T00:42:29.843Z,36.07
2018-12-29T00:45:02.595Z,38.07
2018-12-29T00:47:30.203Z,36.47
2018-12-29T00:49:59.118Z,35.43
2018-12-29T00:52:27.906Z,36.43
2018-12-29T00:54:56.771Z,37.03
2018-12-29T00:57:25.693Z,36.07
2018-12-29T00:59:54.439Z,36.10
2018-12-29T01:02:23.032Z,37.87
2018-12-29T01:04:51.904Z,35.77
2018-12-29T01:07:20.552Z,36.07
2018-12-29T01:09:49.519Z,36.20
2018-12-29T01:12:18.928Z,34.47
2018-12-29T01:14:47.847Z,35.33
2018-12-29T01:17:16.477Z,36.53
2018-12-29T01:19:45.385Z,36.20
2018-12-29T01:22:14.286Z,37.00
2018-12-29T01:24:43.116Z,36.17
2018-12-29T01:27:11.844Z,35.50
2018-12-29T01:29:40.538Z,37.57
2018-12-29T01:32:09.334Z,36.53
2018-12-29T01:34:38.001Z,34.33
2018-12-29T01:37:08.305Z,35.33
2018-12-29T01:39:37.140Z,34.77
2018-12-29T01:42:05.819Z,36.23
2018-12-29T01:44:34.501Z,35.90
2018-12-29T01:47:03.241Z,34.80
2018-12-29T01:49:31.974Z,35.00
2018-12-29T01:52:00.835Z,33.50
2018-12-29T01:54:29.540Z,36.87
2018-12-29T01:56:58.438Z,35.47
2018-12-29T01:59:27.343Z,34.60
2018-12-29T02:01:56.181Z,35.07
2018-12-29T02:04:24.851Z,34.00
2018-12-29T02:06:53.643Z,33.67
2018-12-29T02:09:22.591Z,36.70
2018-12-29T02:11:51.321Z,37.80
2018-12-29T02:14:20.175Z,35.13
2018-12-29T02:16:49.099Z,36.20
2018-12-29T02:19:17.849Z,34.90
2018-12-29T02:21:49.279Z,34.10
2018-12-29T02:24:17.963Z,34.83
2018-12-29T02:26:46.831Z,36.37
2018-12-29T02:29:15.709Z,35.40
2018-12-29T02:31:44.468Z,34.97
2018-12-29T02:34:13.299Z,34.47
2018-12-29T02:36:41.998Z,34.73
2018-12-29T02:39:10.708Z,35.50
2018-12-29T02:41:40.933Z,35.60
2018-12-29T02:44:09.596Z,35.43
2018-12-29T02:46:39.394Z,34.30
2018-12-29T02:49:07.985Z,35.03
2018-12-29T02:51:36.791Z,36.77
2018-12-29T02:54:05.485Z,36.20
2018-12-29T02:56:34.138Z,35.90
2018-12-29T02:59:02.918Z,32.23
2018-12-29T03:01:31.576Z,35.73
2018-12-29T03:04:00.176Z,34.50
2018-12-29T03:06:30.949Z,35.83
2018-12-29T03:08:59.611Z,31.87
2018-12-29T03:11:28.489Z,32.20
2018-12-29T03:13:57.190Z,35.10
2018-12-29T03:16:26.062Z,33.87
2018-12-29T03:18:54.767Z,33.53
2018-12-29T03:21:23.335Z,34.20
2018-12-29T03:23:52.075Z,33.00
2018-12-29T03:26:20.931Z,32.70
2018-12-29T03:28:49.735Z,32.57
2018-12-29T03:31:18.619Z,33.00
2018-12-29T03:33:47.165Z,32.97
2018-12-29T03:36:15.724Z,33.03
2018-12-29T03:38:44.607Z,28.10
2018-12-29T03:41:13.326Z,29.67
2018-12-29T03:43:42.301Z,31.83
2018-12-29T03:46:10.902Z,32.03
2018-12-29T03:48:39.705Z,31.33
2018-12-29T03:51:08.552Z,31.67
2018-12-29T03:53:37.343Z,32.63
2018-12-29T03:56:06.142Z,29.13
2018-12-29T03:58:34.753Z,30.07
2018-12-29T04:01:03.529Z,30.60
2018-12-29T04:03:32.370Z,30.70
2018-12-29T04:06:01.164Z,30.97
2018-12-29T04:08:29.867Z,29.17
2018-12-29T04:10:59.345Z,30.10
2018-12-29T04:13:28.087Z,30.10
2018-12-29T04:15:58.120Z,31.23
2018-12-29T04:18:27.257Z,31.57
2018-12-29T04:20:55.963Z,30.93
2018-12-29T04:23:24.730Z,30.17
2018-12-29T04:25:53.313Z,30.33
2018-12-29T04:28:23.429Z,32.20
2018-12-29T04:30:52.248Z,30.50
2018-12-29T04:33:20.770Z,32.57
2018-12-29T04:35:49.444Z,30.57
2018-12-29T04:38:18.366Z,26.87
2018-12-29T04:40:47.127Z,27.97
2018-12-29T04:43:15.872Z,27.77
2018-12-29T04:45:44.598Z,27.73
2018-12-29T04:48:13.430Z,29.07
2018-12-29T04:50:42.209Z,29.17
2018-12-29T04:53:10.975Z,28.63
2018-12-29T04:55:39.744Z,27.33
2018-12-29T04:58:08.499Z,29.57
2018-12-29T05:00:37.326Z,29.63
2018-12-29T05:03:06.027Z,27.87
2018-12-29T05:05:34.839Z,29.53
2018-12-29T05:08:03.377Z,26.97
2018-12-29T05:10:32.361Z,28.67
2018-12-29T05:13:00.909Z,27.03
2018-12-29T05:15:29.841Z,27.03
2018-12-29T05:17:58.608Z,29.73
2018-12-29T05:20:27.438Z,29.47
2018-12-29T05:22:56.156Z,26.80
2018-12-29T05:25:25.096Z,27.67
2018-12-29T05:27:53.897Z,29.03
2018-12-29T05:30:22.698Z,28.43
2018-12-29T05:32:51.508Z,29.23
2018-12-29T05:35:20.076Z,26.93
2018-12-29T05:37:49.637Z,27.77
2018-12-29T05:40:18.549Z,28.60
2018-12-29T05:42:47.149Z,27.83
2018-12-29T05:45:16.179Z,27.47
2018-12-29T05:47:44.774Z,28.37
2018-12-29T05:50:13.553Z,26.47
2018-12-29T05:52:42.483Z,26.30
2018-12-29T05:55:11.336Z,27.53
2018-12-29T05:57:40.228Z,30.50
2018-12-29T06:00:10.399Z,26.90
2018-12-29T06:02:39.234Z,29.00
2018-12-29T06:05:08.034Z,26.63
2018-12-29T06:07:38.174Z,26.30
2018-12-29T06:10:07.075Z,26.87
2018-12-29T06:12:35.673Z,27.03
2018-12-29T06:15:05.566Z,27.37
2018-12-29T06:17:34.423Z,26.33
2018-12-29T06:20:03.982Z,28.83
2018-12-29T06:22:32.900Z,26.40
2018-12-29T06:25:01.664Z,27.53
2018-12-29T06:27:30.220Z,26.63
2018-12-29T06:29:58.816Z,27.53
2018-12-29T06:32:27.585Z,27.53
2018-12-29T06:34:56.414Z,28.70
2018-12-29T06:37:25.044Z,27.30
2018-12-29T06:39:53.829Z,28.20
2018-12-29T06:42:22.438Z,27.70
2018-12-29T06:44:51.178Z,25.60
2018-12-29T06:47:21.400Z,25.90
2018-12-29T06:49:50.183Z,27.07
2018-12-29T06:52:19.092Z,26.60
2018-12-29T06:54:48.028Z,27.37
2018-12-29T06:57:16.913Z,26.87
2018-12-29T06:59:45.784Z,26.17
2018-12-29T07:02:14.725Z,28.67
2018-12-29T07:04:43.589Z,25.07
2018-12-29T07:07:12.383Z,25.53
2018-12-29T07:09:41.089Z,26.53
2018-12-29T07:12:09.866Z,26.73
2018-12-29T07:14:38.475Z,26.50
2018-12-29T07:17:07.139Z,26.27
2018-12-29T07:19:35.843Z,25.50
2018-12-29T07:22:04.527Z,27.10
2018-12-29T07:24:33.179Z,27.33
2018-12-29T07:27:01.981Z,26.03
2018-12-29T07:29:37.937Z,25.87
2018-12-29T07:32:00.983Z,26.10
2018-12-29T07:34:29.773Z,25.43
2018-12-29T07:36:58.369Z,26.67
2018-12-29T07:39:28.586Z,27.03
2018-12-29T07:41:57.142Z,26.30
2018-12-29T07:44:25.940Z,25.73
2018-12-29T07:46:54.678Z,25.37
2018-12-29T07:49:23.425Z,24.03
2018-12-29T07:51:52.193Z,25.43
2018-12-29T07:54:21.097Z,24.00
2018-12-29T07:56:49.832Z,25.00
2018-12-29T07:59:18.388Z,24.80
2018-12-29T08:01:47.306Z,23.07
2018-12-29T08:04:16.054Z,24.27
2018-12-29T08:06:44.566Z,24.37
2018-12-29T08:09:13.532Z,22.63
2018-12-29T08:11:42.169Z,25.13
2018-12-29T08:14:10.951Z,24.13
2018-12-29T08:16:41.141Z,23.33
2018-12-29T08:19:09.832Z,22.63
2018-12-29T08:21:38.708Z,24.87
2018-12-29T08:24:07.329Z,25.00
2018-12-29T08:26:36.134Z,24.27
2018-12-29T08:29:05.054Z,24.67
2018-12-29T08:31:33.952Z,24.60
2018-12-29T08:34:02.832Z,24.17
2018-12-29T08:36:31.483Z,23.37
2018-12-29T08:39:00.344Z,24.27
2018-12-29T08:41:29.210Z,23.23
2018-12-29T08:43:58.039Z,23.07
2018-12-29T08:46:27.012Z,25.17
2018-12-29T08:48:55.853Z,23.53
2018-12-29T08:51:24.817Z,24.70
2018-12-29T08:53:53.672Z,22.57
2018-12-29T08:56:22.393Z,21.80
2018-12-29T08:58:51.314Z,24.00
2018-12-29T09:01:20.173Z,22.70
2018-12-29T09:03:49.011Z,22.80
2018-12-29T09:06:19.730Z,23.47
2018-12-29T09:08:48.467Z,22.47
2018-12-29T09:11:20.229Z,23.87
2018-12-29T09:13:48.937Z,23.23
2018-12-29T09:16:17.730Z,24.33
2018-12-29T09:18:49.807Z,25.70
2018-12-29T09:21:16.997Z,25.10
2018-12-29T09:23:45.740Z,23.63
2018-12-29T09:26:14.551Z,22.70
2018-12-29T09:28:43.427Z,24.70
2018-12-29T09:31:11.933Z,24.00
2018-12-29T09:33:42.309Z,25.67
2018-12-29T09:36:11.119Z,24.97
2018-12-29T09:38:39.695Z,24.03
2018-12-29T09:41:08.268Z,24.53
2018-12-29T09:43:37.083Z,24.23
2018-12-29T09:46:05.793Z,26.53
2018-12-29T09:48:34.494Z,25.50
2018-12-29T09:51:03.248Z,25.47
2018-12-29T09:53:32.062Z,25.83
2018-12-29T09:56:00.788Z,25.73
2018-12-29T09:58:31.264Z,23.73
2018-12-29T10:01:00.204Z,25.07
2018-12-29T10:03:28.925Z,25.80
2018-12-29T10:05:57.638Z,25.17
2018-12-29T10:08:26.479Z,24.17
2018-12-29T10:10:55.082Z,25.10
2018-12-29T10:13:23.620Z,24.47
2018-12-29T10:15:52.452Z,24.83
2018-12-29T10:18:21.402Z,22.90
2018-12-29T10:20:49.932Z,24.67
2018-12-29T10:23:18.742Z,24.07
2018-12-29T10:25:47.468Z,24.13
2018-12-29T10:28:16.372Z,24.53
2018-12-29T10:30:45.189Z,23.87
2018-12-29T10:33:13.862Z,24.30
2018-12-29T10:35:42.831Z,23.03
2018-12-29T10:38:11.741Z,23.10
2018-12-29T10:40:40.514Z,24.50
2018-12-29T10:43:09.543Z,20.80
2018-12-29T10:45:38.625Z,24.10
2018-12-29T10:48:07.715Z,23.27
2018-12-29T10:50:36.507Z,24.30
2018-12-29T10:53:05.450Z,22.07
2018-12-29T10:55:34.485Z,21.77
2018-12-29T10:58:03.514Z,22.50
2018-12-29T11:00:35.066Z,23.47
2018-12-29T11:03:02.672Z,21.90
2018-12-29T11:05:31.574Z,22.23
2018-12-29T11:08:00.525Z,22.77
2018-12-29T11:10:29.366Z,21.47
2018-12-29T11:12:58.245Z,19.83
2018-12-29T11:15:27.281Z,23.00
2018-12-29T11:17:56.121Z,23.50
2018-12-29T11:20:24.946Z,21.90
2018-12-29T11:22:53.814Z,19.37
2018-12-29T11:25:22.927Z,21.40
2018-12-29T11:27:51.612Z,22.33
2018-12-29T11:30:20.511Z,22.43
2018-12-29T11:32:49.448Z,21.33
2018-12-29T11:35:18.272Z,20.70
2018-12-29T11:37:47.244Z,20.77
2018-12-29T11:40:16.065Z,22.37
2018-12-29T11:42:44.691Z,22.30
2018-12-29T11:45:13.452Z,21.87
2018-12-29T11:47:49.584Z,20.67
2018-12-29T11:50:12.869Z,21.33
2018-12-29T11:52:43.314Z,21.23
2018-12-29T11:55:12.039Z,21.27
2018-12-29T11:57:40.675Z,21.93
2018-12-29T12:00:09.711Z,22.23
2018-12-29T12:02:38.677Z,21.80
2018-12-29T12:05:07.612Z,22.37
2018-12-29T12:07:36.639Z,19.33
2018-12-29T12:10:06.183Z,21.77
2018-12-29T12:12:35.665Z,21.10
2018-12-29T12:15:05.602Z,20.27
2018-12-29T12:17:34.534Z,19.10
2018-12-29T12:20:03.243Z,21.13
2018-12-29T12:22:32.080Z,21.93
2018-12-29T12:25:01.386Z,22.80
2018-12-29T12:27:30.302Z,22.60
2018-12-29T12:29:59.704Z,22.03
2018-12-29T12:32:28.563Z,19.97
2018-12-29T12:34:57.850Z,19.63
2018-12-29T12:37:28.241Z,22.27
2018-12-29T12:39:57.335Z,22.37
2018-12-29T12:42:25.923Z,22.77
2018-12-29T12:44:54.635Z,23.50
2018-12-29T12:47:23.368Z,22.93
2018-12-29T12:49:52.032Z,22.20
2018-12-29T12:52:20.583Z,21.93
2018-12-29T12:54:49.349Z,22.23
2018-12-29T12:57:18.514Z,25.17
2018-12-29T12:59:47.615Z,23.10
2018-12-29T13:02:16.444Z,21.83
2018-12-29T13:04:48.167Z,22.33
2018-12-29T13:07:16.911Z,23.53
2018-12-29T13:09:46.552Z,25.73
2018-12-29T13:12:16.887Z,24.07
2018-12-29T13:14:45.620Z,24.13
2018-12-29T13:17:14.533Z,25.33
2018-12-29T13:19:44.808Z,23.37
2018-12-29T13:22:13.478Z,23.70
2018-12-29T13:24:42.407Z,26.00
2018-12-29T13:27:11.555Z,25.23
2018-12-29T13:29:40.088Z,25.30
2018-12-29T13:32:08.648Z,24.40
2018-12-29T13:34:37.126Z,25.27
2018-12-29T13:37:05.854Z,25.93
2018-12-29T13:39:35.077Z,26.67
2018-12-29T13:42:03.747Z,26.83
2018-12-29T13:44:32.261Z,28.87
2018-12-29T13:47:00.852Z,27.47
2018-12-29T13:49:29.668Z,26.87
2018-12-29T13:51:58.867Z,28.07
2018-12-29T13:54:27.587Z,23.10
2018-12-29T13:56:56.778Z,26.03
2018-12-29T13:59:25.375Z,28.30
2018-12-29T14:01:54.026Z,30.70
2018-12-29T14:04:22.787Z,25.80
2018-12-29T14:06:51.533Z,23.93
2018-12-29T14:09:21.305Z,29.07
2018-12-29T14:11:50.089Z,30.43
2018-12-29T14:14:18.666Z,31.47
2018-12-29T14:16:49.838Z,28.60
2018-12-29T14:19:20.974Z,28.67
2018-12-29T14:21:51.247Z,30.13
2018-12-29T14:24:19.819Z,32.27
2018-12-29T14:26:48.654Z,29.93
2018-12-29T14:29:17.742Z,34.00
2018-12-29T14:31:46.428Z,35.00
2018-12-29T14:34:14.955Z,33.40
2018-12-29T14:36:43.538Z,30.97
2018-12-29T14:39:12.230Z,34.67
2018-12-29T14:41:41.462Z,33.97
2018-12-29T14:44:10.209Z,31.33
2018-12-29T14:46:38.945Z,33.63
2018-12-29T14:49:07.812Z,32.33
2018-12-29T14:51:36.594Z,31.57
2018-12-29T14:54:05.146Z,35.43
2018-12-29T14:56:33.856Z,34.50
2018-12-29T14:59:02.553Z,36.63
2018-12-29T15:01:31.140Z,38.27
2018-12-29T15:03:59.784Z,34.80
2018-12-29T15:06:28.331Z,35.27
2018-12-29T15:08:56.954Z,33.10
2018-12-29T15:11:25.861Z,35.90
2018-12-29T15:13:54.426Z,38.70
2018-12-29T15:16:23.104Z,41.27
2018-12-29T15:18:51.966Z,38.13
2018-12-29T15:21:20.661Z,37.23
2018-12-29T15:23:49.282Z,40.23
2018-12-29T15:26:18.181Z,37.60
2018-12-29T15:28:46.975Z,40.07
2018-12-29T15:31:15.669Z,36.00
2018-12-29T15:33:44.218Z,39.97
2018-12-29T15:36:16.129Z,40.43
2018-12-29T15:38:43.429Z,37.87
2018-12-29T15:41:12.261Z,41.13
2018-12-29T15:43:40.881Z,40.97
2018-12-29T15:46:09.440Z,40.17
2018-12-29T15:48:38.009Z,38.67
2018-12-29T15:51:06.610Z,37.77
2018-12-29T15:53:35.265Z,40.73
2018-12-29T15:56:04.062Z,41.93
2018-12-29T15:58:32.601Z,42.40
2018-12-29T16:01:01.110Z,39.83
2018-12-29T16:03:29.696Z,42.03
2018-12-29T16:05:58.433Z,42.50
2018-12-29T16:08:27.440Z,41.77
2018-12-29T16:10:55.957Z,39.90
2018-12-29T16:13:24.536Z,40.43
2018-12-29T16:15:53.119Z,40.37
2018-12-29T16:18:21.968Z,42.03
2018-12-29T16:20:54.269Z,40.17
2018-12-29T16:23:22.390Z,38.70
2018-12-29T16:25:52.993Z,39.60
2018-12-29T16:28:21.590Z,38.20
2018-12-29T16:30:50.219Z,40.03
2018-12-29T16:33:18.759Z,38.07
2018-12-29T16:35:47.314Z,39.33
2018-12-29T16:38:15.967Z,37.30
2018-12-29T16:40:44.557Z,39.40
2018-12-29T16:43:13.124Z,36.10
2018-12-29T16:45:41.718Z,36.43
2018-12-29T16:48:10.634Z,33.97
2018-12-29T16:50:39.435Z,36.77
2018-12-29T16:53:08.024Z,33.37
2018-12-29T16:55:36.840Z,31.93
2018-12-29T16:58:05.864Z,34.10
2018-12-29T17:00:34.584Z,29.83
2018-12-29T17:03:03.404Z,31.70
2018-12-29T17:05:32.026Z,29.63
2018-12-29T17:08:00.838Z,27.27
2018-12-29T17:10:29.551Z,28.43
2018-12-29T17:12:58.299Z,27.67
2018-12-29T17:15:27.193Z,27.50
2018-12-29T17:17:56.097Z,24.77
2018-12-29T17:20:24.837Z,25.03
2018-12-29T17:22:53.672Z,26.47
2018-12-29T17:25:23.367Z,22.20
2018-12-29T17:27:52.326Z,21.43
2018-12-29T17:30:20.890Z,23.27
2018-12-29T17:32:49.595Z,23.03
2018-12-29T17:35:18.144Z,21.97
2018-12-29T17:37:46.807Z,20.33
2018-12-29T17:40:15.404Z,21.93
2018-12-29T17:42:46.823Z,19.33
2018-12-29T17:45:15.499Z,20.63
2018-12-29T17:47:44.206Z,18.47
2018-12-29T17:50:12.823Z,17.73
2018-12-29T17:52:41.376Z,18.63
2018-12-29T17:55:10.242Z,17.20
2018-12-29T17:57:38.958Z,17.27
2018-12-29T18:00:08.173Z,16.80
2018-12-29T18:02:36.912Z,16.60
2018-12-29T18:05:05.745Z,15.53
2018-12-29T18:07:34.340Z,14.57
2018-12-29T18:10:03.020Z,15.10
2018-12-29T18:12:31.544Z,13.73
2018-12-29T18:15:02.392Z,13.03
2018-12-29T18:17:30.393Z,10.97
2018-12-29T18:19:58.954Z,11.27
2018-12-29T18:22:28.052Z,10.57
2018-12-29T18:24:56.952Z,10.50
2018-12-29T18:27:25.508Z,8.50
2018-12-29T18:29:54.041Z,8.33
2018-12-29T18:32:24.149Z,7.33
2018-12-29T18:34:52.686Z,6.57
2018-12-29T18:37:21.649Z,7.17
2018-12-29T18:39:50.296Z,7.47
2018-12-29T18:42:18.884Z,6.77
2018-12-29T18:44:47.458Z,8.10
2018-12-29T18:47:17.174Z,6.70
2018-12-29T18:49:45.664Z,6.80
2018-12-29T18:52:17.437Z,7.30
2018-12-29T18:54:48.063Z,6.30
2018-12-29T18:57:16.241Z,5.97
2018-12-29T18:59:46.307Z,7.80
2018-12-29T19:02:14.899Z,6.77
2018-12-29T19:04:43.623Z,6.13
2018-12-29T19:07:12.159Z,5.90
2018-12-29T19:09:40.729Z,5.40
2018-12-29T19:12:11.374Z,5.53
2018-12-29T19:14:39.508Z,5.30
2018-12-29T19:17:08.074Z,5.77
2018-12-29T19:19:46.037Z,5.83
2018-12-29T19:22:14.712Z,5.53
2018-12-29T19:24:47.526Z,4.83
2018-12-29T19:27:16.060Z,4.00
2018-12-29T19:29:44.911Z,3.47
2018-12-29T19:32:13.869Z,3.13
2018-12-29T19:34:42.791Z,3.70
2018-12-29T19:37:11.775Z,2.90
2018-12-29T19:39:40.719Z,3.67
2018-12-29T19:42:09.270Z,3.27
2018-12-29T19:44:38.115Z,3.67
2018-12-29T19:47:06.616Z,4.07
2018-12-29T19:49:35.594Z,4.27
2018-12-29T19:52:04.356Z,3.67
2018-12-29T19:54:32.994Z,4.57
2018-12-29T19:57:01.865Z,3.83
2018-12-29T19:59:30.738Z,3.83
2018-12-29T20:02:02.788Z,3.40
2018-12-29T20:04:31.311Z,3.43
2018-12-29T20:07:00.047Z,5.43
2018-12-29T20:09:28.700Z,3.77
2018-12-29T20:11:57.537Z,5.93
2018-12-29T20:14:26.124Z,4.93
2018-12-29T20:16:54.726Z,4.77
2018-12-29T20:19:23.283Z,3.80
2018-12-29T20:21:53.478Z,3.47
2018-12-29T20:24:22.345Z,3.37
2018-12-29T20:26:50.921Z,4.90
2018-12-29T20:29:20.993Z,4.57
2018-12-29T20:31:55.542Z,4.03
2018-12-29T20:34:24.094Z,4.90
2018-12-29T20:36:53.090Z,4.60
2018-12-29T20:39:24.145Z,4.07
2018-12-29T20:41:55.378Z,3.90
2018-12-29T20:44:23.959Z,3.33
2018-12-29T20:46:52.599Z,3.00
2018-12-29T20:49:22.805Z,4.33
2018-12-29T20:51:52.899Z,3.60
2018-12-29T20:54:21.455Z,4.23
2018-12-29T20:56:53.542Z,5.20
2018-12-29T20:59:23.337Z,3.90
2018-12-29T21:01:51.926Z,3.73
2018-12-29T21:04:22.074Z,5.17
2018-12-29T21:06:50.664Z,3.67
2018-12-29T21:09:19.281Z,5.07
2018-12-29T21:11:47.831Z,4.13
2018-12-29T21:14:16.774Z,3.63
2018-12-29T21:16:48.289Z,5.60
2018-12-29T21:19:16.941Z,4.23
2018-12-29T21:21:45.529Z,4.33
2018-12-29T21:24:14.189Z,6.90
2018-12-29T21:26:47.690Z,5.93
2018-12-29T21:29:16.210Z,5.93
2018-12-29T21:31:48.048Z,5.33
2018-12-29T21:34:16.651Z,5.30
2018-12-29T21:36:45.229Z,5.93
2018-12-29T21:39:14.193Z,5.70
2018-12-29T21:41:42.824Z,7.43
2018-12-29T21:44:15.120Z,8.50
2018-12-29T21:46:43.651Z,7.60
2018-12-29T21:49:12.206Z,6.80
2018-12-29T21:51:40.774Z,6.80
2018-12-29T21:54:10.850Z,4.73
2018-12-29T21:56:41.037Z,4.70
2018-12-29T21:59:11.117Z,4.23
2018-12-29T22:01:39.665Z,4.40
2018-12-29T22:04:08.247Z,5.00
2018-12-29T22:06:36.806Z,4.23
2018-12-29T22:09:08.335Z,4.67
2018-12-29T22:11:36.958Z,3.87
2018-12-29T22:14:05.665Z,4.40
2018-12-29T22:16:34.374Z,4.83
2018-12-29T22:19:03.359Z,4.77
2018-12-29T22:21:32.068Z,4.63
2018-12-29T22:24:00.932Z,5.20
2018-12-29T22:26:29.696Z,4.00
2018-12-29T22:28:58.443Z,4.43
2018-12-29T22:31:26.950Z,4.50
2018-12-29T22:33:55.518Z,3.90
2018-12-29T22:36:24.092Z,4.23
2018-12-29T22:38:52.643Z,4.40
2018-12-29T22:41:21.209Z,4.40
2018-12-29T22:43:49.968Z,4.80
2018-12-29T22:46:18.767Z,4.23
2018-12-29T22:48:47.365Z,3.93
2018-12-29T22:51:16.037Z,3.80
2018-12-29T22:53:45.028Z,4.77
2018-12-29T22:56:13.853Z,4.37
2018-12-29T22:58:43.036Z,4.10
2018-12-29T23:01:11.656Z,4.77
2018-12-29T23:03:40.521Z,4.07
2018-12-29T23:06:09.301Z,4.20
2018-12-29T23:08:38.237Z,3.87
2018-12-29T23:11:07.250Z,3.57
2018-12-29T23:13:35.912Z,4.53
2018-12-29T23:16:04.538Z,3.63
2018-12-29T23:18:33.521Z,3.20
2018-12-29T23:21:02.056Z,4.10
2018-12-29T23:23:30.901Z,3.90
2018-12-29T23:26:00.240Z,3.90
2018-12-29T23:28:29.157Z,3.80
2018-12-29T23:30:58.424Z,4.30
2018-12-29T23:33:27.303Z,3.73
2018-12-29T23:35:56.215Z,3.50
2018-12-29T23:38:24.986Z,4.37
2018-12-29T23:40:53.893Z,3.40
2018-12-29T23:43:22.776Z,4.23
2018-12-29T23:45:51.613Z,3.93
2018-12-29T23:48:20.360Z,4.83
2018-12-29T23:50:49.329Z,3.90
2018-12-29T23:53:18.047Z,4.37
2018-12-29T23:55:47.145Z,3.00
2018-12-29T23:58:15.677Z,4.10
